Time;durP1;ratioP1;P1;durP2;ratioP2;P2;SDS_P1;SDS_P2;PMS_P1;PMS_P2;Temp;Humidity;BMP_temperature;BMP_pressure;BME280_temperature;BME280_humidity;BME280_pressure;Samples;Min_cycle;Max_cycle;Signal;HPM_P1;HPM_P2
2021/12/05 00:27:00;;;;;;;2.76;0.49;;;;;;;3.80;85.05;98068.75;2299617;69;20742;-77
2021/12/05 01:09:51;;;;;;;2.85;0.60;;;;;;;3.75;85.22;98042.19;2307487;69;20294;-78
2021/12/05 01:16:15;;;;;;;3.84;0.54;;;;;;;3.76;85.15;98044.78;2305622;67;26013;-79
2021/12/05 01:19:21;;;;;;;1.27;0.50;;;;;;;3.81;85.13;98047.38;2305522;69;20306;-78
2021/12/05 01:22:27;;;;;;;2.09;0.40;;;;;;;3.84;84.69;98044.78;2305890;69;20321;-78
2021/12/05 01:29:03;;;;;;;2.24;0.50;;;;;;;3.85;84.73;98047.34;2307012;69;20853;-78
2021/12/05 01:35:29;;;;;;;3.69;0.57;;;;;;;3.88;84.51;98038.78;2306779;69;20326;-78
2021/12/05 01:38:59;;;;;;;2.96;0.61;;;;;;;3.90;84.53;98039.66;2307897;69;20290;-78
2021/12/05 02:08:36;;;;;;;1.17;0.40;;;;;;;3.94;83.84;98000.28;2306560;69;20656;-78
2021/12/05 02:41:21;;;;;;;2.89;0.40;;;;;;;4.03;83.39;97968.59;2309774;69;20206;-80
2021/12/05 02:44:24;;;;;;;6.13;0.84;;;;;;;4.03;83.64;97979.72;2305021;69;20342;-79
2021/12/05 02:47:29;;;;;;;1.45;0.47;;;;;;;4.02;83.82;97982.31;2306385;67;26073;-79
2021/12/05 02:50:33;;;;;;;2.67;0.52;;;;;;;4.04;83.66;97981.44;2309676;69;20322;-79
2021/12/05 02:53:42;;;;;;;2.94;0.70;;;;;;;4.07;83.68;97978.88;2307732;69;20363;-79
2021/12/05 02:56:49;;;;;;;5.35;0.60;;;;;;;4.08;84.02;97983.13;2308489;69;20312;-79
2021/12/05 02:59:56;;;;;;;3.08;0.60;;;;;;;4.07;84.34;97973.72;2308944;69;20221;-79
2021/12/05 03:03:00;;;;;;;4.61;0.60;;;;;;;4.08;84.30;97969.44;2308847;67;23015;-79
2021/12/05 03:06:17;;;;;;;3.01;0.81;;;;;;;4.08;84.32;97970.31;2310009;69;20322;-79
2021/12/05 03:09:21;;;;;;;3.03;0.50;;;;;;;4.09;84.43;97968.59;2311079;69;20340;-79
2021/12/05 03:12:24;;;;;;;3.61;0.64;;;;;;;4.08;84.55;97966.88;2309425;69;20324;-79
2021/12/05 03:15:27;;;;;;;2.45;0.60;;;;;;;4.07;84.10;97965.16;2310062;67;29285;-79
2021/12/05 03:18:30;;;;;;;1.96;0.41;;;;;;;4.09;84.02;97963.44;2310580;69;21260;-79
2021/12/05 03:21:35;;;;;;;2.54;0.60;;;;;;;4.10;83.80;97960.03;2304957;69;20385;-79
2021/12/05 03:34:17;;;;;;;2.44;0.50;;;;;;;4.13;83.83;97957.44;2281148;70;20417;-79
2021/12/05 03:37:59;;;;;;;3.31;0.46;;;;;;;4.14;84.02;97954.91;2272979;70;20415;-79
2021/12/05 03:49:51;;;;;;;3.03;0.50;;;;;;;4.13;84.20;97954.88;2300977;69;20300;-78
2021/12/05 03:53:24;;;;;;;3.19;0.57;;;;;;;4.11;84.26;97942.03;2302879;69;20704;-77
2021/12/05 03:56:37;;;;;;;3.61;0.60;;;;;;;4.11;84.43;97936.03;2298377;69;20691;-77
2021/12/05 03:59:53;;;;;;;5.59;0.59;;;;;;;4.12;84.53;97937.75;2303593;69;20257;-78
2021/12/05 04:03:51;;;;;;;4.74;0.60;;;;;;;4.10;84.37;97929.19;2300289;69;20409;-78
2021/12/05 04:08:04;;;;;;;2.53;0.60;;;;;;;4.08;84.29;97934.34;2301344;69;20311;-77
2021/12/05 04:11:15;;;;;;;3.71;0.60;;;;;;;4.06;84.58;97932.63;2303111;69;20793;-78
2021/12/05 04:14:18;;;;;;;2.90;0.71;;;;;;;4.05;84.71;97929.22;2298051;69;20161;-77
2021/12/05 04:17:22;;;;;;;1.56;0.71;;;;;;;4.06;84.98;97924.94;2300949;66;21083;-77
2021/12/05 04:20:25;;;;;;;5.90;0.80;;;;;;;4.01;84.92;97932.66;2304815;69;20814;-78
2021/12/05 04:23:28;;;;;;;2.67;0.68;;;;;;;4.01;85.20;97921.53;2298178;69;20315;-78
2021/12/05 04:26:31;;;;;;;2.44;0.69;;;;;;;3.98;85.28;97931.81;2302826;69;20739;-78
2021/12/05 04:29:36;;;;;;;2.88;0.56;;;;;;;3.96;85.92;97924.13;2304612;69;20444;-77
2021/12/05 04:32:39;;;;;;;4.16;0.64;;;;;;;3.96;86.21;97928.41;2300733;66;23160;-77
2021/12/05 04:35:43;;;;;;;2.14;0.50;;;;;;;3.97;86.46;97930.09;2301421;69;20859;-76
2021/12/05 04:38:47;;;;;;;5.31;0.52;;;;;;;3.96;86.84;97929.25;2300773;69;20323;-76
2021/12/05 04:41:50;;;;;;;2.44;0.65;;;;;;;3.94;86.89;97930.94;2301444;69;20315;-77
2021/12/05 04:44:52;;;;;;;9.38;0.81;;;;;;;3.90;86.79;97930.09;2302167;69;20315;-76
2021/12/05 04:47:57;;;;;;;4.55;0.60;;;;;;;3.92;86.96;97933.50;2299695;66;20961;-76
2021/12/05 04:51:00;;;;;;;3.46;0.69;;;;;;;3.91;87.02;97936.94;2303342;69;20307;-77
2021/12/05 04:54:04;;;;;;;1.21;0.50;;;;;;;3.92;87.15;97935.22;2302142;69;20310;-76
2021/12/05 04:57:08;;;;;;;3.72;0.71;;;;;;;3.89;87.28;97933.53;2300996;69;20317;-76
2021/12/05 05:00:21;;;;;;;3.92;0.41;;;;;;;3.92;87.33;97932.66;2299571;69;20291;-77
2021/12/05 05:03:26;;;;;;;3.28;0.80;;;;;;;3.91;87.31;97929.25;2304659;69;20312;-77
2021/12/05 05:06:28;;;;;;;3.39;0.60;;;;;;;3.93;87.49;97927.53;2301487;69;20307;-77
2021/12/05 05:09:32;;;;;;;3.70;0.75;;;;;;;3.94;87.33;97925.81;2300425;69;20388;-77
2021/12/05 05:12:35;;;;;;;3.85;0.63;;;;;;;3.93;87.60;97927.53;2301503;69;20357;-77
2021/12/05 05:15:37;;;;;;;2.17;0.55;;;;;;;3.89;87.47;97912.97;2300832;67;24706;-77
2021/12/05 05:19:03;;;;;;;2.94;0.49;;;;;;;3.89;87.22;97917.25;2301940;69;20316;-78
2021/12/05 05:42:40;;;;;;;1.23;0.50;;;;;;;3.86;85.97;97909.56;2301816;69;20313;-78
2021/12/05 05:52:22;;;;;;;1.63;0.34;;;;;;;3.83;83.86;97925.84;2295205;69;20384;-77
2021/12/05 05:55:25;;;;;;;1.26;0.36;;;;;;;3.83;84.52;97917.28;2298707;69;20304;-77
2021/12/05 05:58:39;;;;;;;2.99;0.40;;;;;;;3.81;84.78;97921.56;2301888;69;20384;-77
2021/12/05 06:03:18;;;;;;;1.80;0.43;;;;;;;3.75;85.23;97922.41;2299695;67;23605;-77
2021/12/05 06:05:05;;;;;;;2.45;0.39;;;;;;;3.73;85.71;97918.13;2303993;69;20311;-77
2021/12/05 06:08:08;;;;;;;3.95;0.34;;;;;;;3.71;86.07;97910.44;2302709;69;20364;-77
2021/12/05 06:11:14;;;;;;;3.35;0.40;;;;;;;3.70;86.34;97913.88;2303457;69;20372;-77
2021/12/05 06:14:17;;;;;;;0.77;0.34;;;;;;;3.70;86.53;97910.44;2301914;69;20335;-77
2021/12/05 06:17:19;;;;;;;1.70;0.35;;;;;;;3.68;87.00;97900.19;2296618;69;25491;-77
2021/12/05 06:20:25;;;;;;;5.80;2.15;;;;;;;3.64;87.18;97903.63;2302881;69;20315;-77
2021/12/05 06:23:33;;;;;;;2.06;0.50;;;;;;;3.54;87.04;97912.16;2302584;69;20336;-77
2021/12/05 06:26:37;;;;;;;0.81;0.49;;;;;;;3.47;87.14;97913.91;2300480;69;20444;-77
2021/12/05 06:29:46;;;;;;;1.79;0.43;;;;;;;3.42;87.25;97923.31;2295509;69;20326;-77
2021/12/05 06:39:49;;;;;;;1.10;0.30;;;;;;;3.40;88.03;97937.81;2303755;69;20312;-77
2021/12/05 06:43:04;;;;;;;1.91;0.40;;;;;;;3.42;88.38;97946.41;2302243;69;20311;-78
2021/12/05 06:46:18;;;;;;;1.75;0.40;;;;;;;3.47;88.60;97946.41;2302113;66;24554;-77
2021/12/05 06:49:26;;;;;;;2.75;0.43;;;;;;;3.47;88.68;97946.41;2297068;69;20340;-78
2021/12/05 06:52:29;;;;;;;0.41;0.25;;;;;;;3.50;88.92;97954.94;2295262;69;20308;-78
2021/12/05 06:55:32;;;;;;;0.99;0.39;;;;;;;3.52;89.05;97960.06;2295808;69;20828;-77
2021/12/05 06:58:35;;;;;;;1.88;0.40;;;;;;;3.55;89.29;97962.63;2295479;69;20374;-78
2021/12/05 07:01:38;;;;;;;3.45;0.50;;;;;;;3.54;89.44;97960.94;2293704;69;22317;-78
2021/12/05 07:08:03;;;;;;;0.68;0.40;;;;;;;3.52;89.49;97954.94;2299232;69;20367;-78
2021/12/05 07:11:22;;;;;;;1.49;0.40;;;;;;;3.53;89.09;97954.94;2295480;69;20339;-78
2021/12/05 07:14:38;;;;;;;0.69;0.40;;;;;;;3.55;89.02;97957.50;2294629;69;20320;-78
2021/12/05 07:21:32;;;;;;;1.19;0.55;;;;;;;3.51;89.10;97954.09;2292882;69;20414;-77
2021/12/05 07:24:48;;;;;;;1.35;0.40;;;;;;;3.49;89.04;97955.78;2293504;69;20790;-77
2021/12/05 07:41:05;;;;;;;2.00;0.50;;;;;;;3.38;89.79;97961.75;2299546;69;20816;-81
2021/12/05 07:44:08;;;;;;;1.59;0.50;;;;;;;3.34;90.04;97954.06;2292895;69;20300;-77
2021/12/05 07:47:17;;;;;;;0.91;0.51;;;;;;;3.33;90.38;97961.75;2292348;67;24101;-77
2021/12/05 07:50:32;;;;;;;0.80;0.60;;;;;;;3.32;90.59;97960.06;2299660;69;20789;-77
2021/12/05 07:53:53;;;;;;;1.15;0.60;;;;;;;3.34;90.72;97966.91;2300120;69;20941;-77
2021/12/05 07:57:12;;;;;;;1.76;0.75;;;;;;;3.31;91.01;97972.03;2301279;69;20368;-77
2021/12/05 08:00:27;;;;;;;;;;;;;;;3.33;91.20;97975.44;2300939;66;22500;-77
2021/12/05 08:16:53;;;;;;;0.59;0.50;;;;;;;3.54;91.88;97981.44;2299324;67;21323;-77
2021/12/05 08:19:56;;;;;;;0.84;0.57;;;;;;;3.58;91.85;97980.59;2296404;69;20303;-77
2021/12/05 08:23:00;;;;;;;1.10;0.65;;;;;;;3.56;91.48;97979.75;2301970;69;20372;-77
2021/12/05 08:26:07;;;;;;;1.34;0.90;;;;;;;3.59;91.54;97980.63;2295839;69;20295;-77
2021/12/05 08:29:14;;;;;;;0.81;0.60;;;;;;;3.57;91.33;97973.75;2300911;69;20329;-77
2021/12/05 08:32:35;;;;;;;1.52;0.59;;;;;;;3.64;91.22;97983.19;2299505;66;21172;-77
2021/12/05 08:45:59;;;;;;;2.41;0.89;;;;;;;4.00;89.11;97982.31;2301657;66;21715;-77
2021/12/05 09:52:14;;;;;;;1.56;1.10;;;;;;;4.85;86.23;98006.94;2300946;69;20308;-78
2021/12/05 10:02:09;;;;;;;1.48;1.00;;;;;;;5.11;82.83;98017.97;2298070;66;21912;-78
2021/12/05 10:15:39;;;;;;;1.48;0.90;;;;;;;5.10;83.12;98015.38;2298292;69;20291;-78
2021/12/05 10:19:41;;;;;;;3.55;1.73;;;;;;;5.06;83.17;98019.69;2301002;69;20368;-78
2021/12/05 10:26:28;;;;;;;3.26;2.35;;;;;;;4.87;83.78;98024.94;2299554;69;20307;-79
2021/12/05 10:39:23;;;;;;;2.11;1.79;;;;;;;5.33;84.74;98010.13;2299654;69;21054;-78
2021/12/05 10:42:38;;;;;;;1.67;1.52;;;;;;;5.39;83.91;98010.09;2300783;69;20311;-78
2021/12/05 10:45:45;;;;;;;1.86;1.13;;;;;;;5.26;82.65;98011.03;2299083;67;20303;-79
2021/12/05 10:48:53;;;;;;;1.48;1.29;;;;;;;5.19;82.58;98012.75;2298666;69;21103;-78
2021/12/05 10:51:57;;;;;;;1.61;1.05;;;;;;;5.21;82.76;98012.78;2293245;69;20301;-78
2021/12/05 10:55:00;;;;;;;1.76;1.04;;;;;;;5.16;82.35;98015.34;2288844;69;20199;-78
2021/12/05 10:58:04;;;;;;;1.01;0.96;;;;;;;5.12;81.98;98005.94;2294020;69;20284;-78
2021/12/05 11:01:20;;;;;;;1.98;1.04;;;;;;;5.15;81.94;97999.06;2291900;69;20296;-78
2021/12/05 11:04:26;;;;;;;2.03;0.86;;;;;;;5.21;82.27;98005.91;2294720;69;20316;-79
2021/12/05 11:07:38;;;;;;;2.19;1.30;;;;;;;5.25;81.39;97999.03;2294343;69;20300;-78
2021/12/05 11:10:43;;;;;;;1.19;0.89;;;;;;;5.33;81.42;98000.66;2295095;69;20332;-78
2021/12/05 11:13:46;;;;;;;2.92;1.10;;;;;;;5.37;80.89;97998.94;2293211;69;20318;-79
2021/12/05 11:16:53;;;;;;;2.20;1.30;;;;;;;5.43;80.44;97996.34;2291407;67;42682;-78
2021/12/05 11:20:06;;;;;;;2.42;0.82;;;;;;;5.52;80.62;97992.84;2286667;69;20293;-78
2021/12/05 11:23:17;;;;;;;2.31;1.10;;;;;;;5.63;80.35;97993.63;2294207;69;20848;-78
2021/12/05 11:26:20;;;;;;;0.90;0.90;;;;;;;5.75;80.16;97993.53;2292909;69;20385;-78
2021/12/05 11:29:41;;;;;;;1.21;0.85;;;;;;;5.69;79.00;97993.56;2285886;69;20358;-78
2021/12/05 11:33:25;;;;;;;1.21;0.99;;;;;;;5.72;79.73;97996.13;2289324;69;21038;-77
2021/12/05 11:37:01;;;;;;;3.21;0.86;;;;;;;5.76;79.73;98002.97;2286073;69;20318;-77
2021/12/05 11:41:05;;;;;;;1.77;1.00;;;;;;;5.69;80.17;98011.59;2294849;69;20336;-78
2021/12/05 11:44:37;;;;;;;1.40;0.96;;;;;;;5.54;79.12;98014.25;2290729;69;20338;-78
2021/12/05 11:48:21;;;;;;;1.29;0.60;;;;;;;5.50;80.61;98010.88;2274644;69;791657;-78
2021/12/05 11:51:56;;;;;;;1.30;0.60;;;;;;;5.47;79.77;98008.31;2283471;69;20146;-77
2021/12/05 11:55:43;;;;;;;1.19;0.61;;;;;;;5.37;79.50;97997.22;2290930;69;20324;-77
2021/12/05 12:03:34;;;;;;;1.00;0.60;;;;;;;5.22;79.38;98004.19;2287993;69;20309;-77
2021/12/05 12:06:40;;;;;;;0.49;0.47;;;;;;;5.14;79.16;97999.06;2284257;69;20296;-78
2021/12/05 12:09:54;;;;;;;1.66;0.50;;;;;;;5.08;79.19;97993.97;2296550;69;20276;-79
2021/12/05 12:13:07;;;;;;;0.85;0.50;;;;;;;5.05;79.19;97991.41;2295621;69;20280;-79
2021/12/05 12:16:12;;;;;;;5.80;0.60;;;;;;;5.03;79.43;97982.84;2293897;67;23169;-79
2021/12/05 12:19:21;;;;;;;1.50;0.50;;;;;;;5.05;79.05;97984.56;2294361;69;20942;-80
2021/12/05 12:22:26;;;;;;;3.41;1.60;;;;;;;5.07;78.83;97981.97;2295923;69;20324;-79
2021/12/05 12:25:34;;;;;;;1.77;1.51;;;;;;;5.13;79.50;97982.78;2295734;69;20170;-79
2021/12/05 12:28:38;;;;;;;2.06;1.65;;;;;;;5.16;78.83;97969.91;2293418;69;20402;-78
2021/12/05 12:32:01;;;;;;;1.84;1.26;;;;;;;5.18;78.53;97971.59;2289977;69;20891;-78
2021/12/05 12:39:50;;;;;;;0.38;0.36;;;;;;;5.19;77.58;97966.44;2275076;69;20919;-78
2021/12/05 12:43:51;;;;;;;1.16;0.40;;;;;;;5.24;77.76;97967.28;2285387;69;20318;-78
2021/12/05 12:47:48;;;;;;;0.72;0.36;;;;;;;5.38;78.28;97969.75;2290089;69;20870;-78
2021/12/05 12:56:53;;;;;;;0.66;0.50;;;;;;;5.70;77.24;97969.53;2262380;70;20436;-79
2021/12/05 13:00:57;;;;;;;1.16;0.40;;;;;;;5.88;77.44;97968.50;2262703;67;39270;-78
2021/12/05 13:12:08;;;;;;;1.27;0.30;;;;;;;5.81;73.94;97972.88;2256084;70;20370;-77
2021/12/05 13:20:00;;;;;;;0.49;0.35;;;;;;;5.75;74.47;97980.66;2266028;70;20438;-78
2021/12/05 13:33:58;;;;;;;0.40;0.30;;;;;;;5.74;72.38;97968.63;2306138;69;20330;-78
2021/12/05 13:41:32;;;;;;;1.00;0.43;;;;;;;5.94;73.63;97979.69;2300681;69;20340;-79
2021/12/05 15:27:48;;;;;;;7.97;2.89;;;;;;;4.67;80.41;98091.81;2288827;69;20351;-80
2021/12/05 15:30:52;;;;;;;11.34;4.85;;;;;;;4.68;81.30;98096.13;2300599;69;20368;-80
2021/12/05 15:33:55;;;;;;;7.79;4.01;;;;;;;4.67;81.07;98100.41;2300394;69;20319;-80
2021/12/05 15:37:05;;;;;;;2.71;1.86;;;;;;;4.68;81.25;98096.97;2301373;69;20299;-79
2021/12/05 15:40:08;;;;;;;2.89;1.48;;;;;;;4.66;80.75;98103.81;2301448;69;20343;-80
2021/12/05 15:43:16;;;;;;;1.31;0.94;;;;;;;4.68;80.90;98104.69;2301848;69;21015;-80
2021/12/05 15:46:18;;;;;;;1.55;1.09;;;;;;;4.69;79.96;98111.53;2295988;67;25600;-80
2021/12/05 15:49:21;;;;;;;1.27;1.13;;;;;;;4.68;79.62;98112.41;2301208;69;20439;-80
2021/12/05 15:52:28;;;;;;;2.16;1.29;;;;;;;4.66;79.39;98114.09;2301642;69;20323;-80
2021/12/05 15:55:31;;;;;;;1.86;1.00;;;;;;;4.65;79.81;98121.81;2301405;69;20315;-79
2021/12/05 15:58:44;;;;;;;1.24;0.70;;;;;;;4.62;80.15;98130.38;2301167;69;20857;-79
2021/12/05 16:01:49;;;;;;;2.01;0.94;;;;;;;4.62;80.26;98132.09;2299985;67;25382;-80
2021/12/05 16:04:52;;;;;;;2.03;0.93;;;;;;;4.60;80.25;98136.41;2301537;69;20538;-80
2021/12/05 16:08:02;;;;;;;1.46;0.77;;;;;;;4.59;80.42;98130.41;2302989;69;20279;-80
2021/12/05 16:11:16;;;;;;;1.29;0.77;;;;;;;4.58;80.82;98131.25;2298737;69;20311;-80
2021/12/05 16:14:30;;;;;;;1.71;0.90;;;;;;;4.58;80.82;98133.81;2300270;69;20311;-80
2021/12/05 16:17:34;;;;;;;1.79;0.90;;;;;;;4.55;80.56;98144.13;2301259;67;22404;-80
2021/12/05 16:20:40;;;;;;;1.44;0.90;;;;;;;4.54;80.74;98147.53;2301373;69;20287;-79
2021/12/05 16:23:43;;;;;;;3.10;1.13;;;;;;;4.55;81.27;98154.41;2300832;69;21054;-80
2021/12/05 16:26:49;;;;;;;1.91;0.89;;;;;;;4.51;81.00;98168.97;2302291;69;20332;-80
2021/12/05 16:29:51;;;;;;;1.11;0.90;;;;;;;4.51;81.42;98180.97;2301006;69;20295;-79
2021/12/05 16:32:54;;;;;;;1.15;0.80;;;;;;;4.52;81.97;98182.69;2298143;67;21522;-78
2021/12/05 16:35:58;;;;;;;2.75;0.60;;;;;;;4.44;82.70;98192.09;2299128;69;20299;-79
2021/12/05 16:39:30;;;;;;;0.82;0.47;;;;;;;4.38;82.84;98194.66;2299385;69;20335;-77
2021/12/05 16:42:35;;;;;;;0.40;0.40;;;;;;;4.23;83.23;98191.22;2296650;69;20420;-77
2021/12/05 16:45:37;;;;;;;0.65;0.50;;;;;;;4.08;83.91;98204.03;2295333;67;20349;-77
2021/12/05 16:48:42;;;;;;;0.61;0.40;;;;;;;4.01;85.04;98202.31;2292827;69;20554;-77
2021/12/05 16:51:49;;;;;;;1.29;0.54;;;;;;;3.94;86.04;98203.97;2298725;69;20343;-78
2021/12/05 16:54:57;;;;;;;2.01;0.47;;;;;;;3.92;87.01;98207.41;2300397;69;20363;-78
2021/12/05 16:58:16;;;;;;;1.23;0.50;;;;;;;3.89;87.59;98208.25;2300209;69;20358;-79
2021/12/05 17:01:20;;;;;;;2.88;0.59;;;;;;;3.90;87.96;98209.97;2301938;67;29127;-79
2021/12/05 17:04:43;;;;;;;0.86;0.60;;;;;;;3.88;88.31;98210.81;2301327;69;20828;-79
2021/12/05 17:07:56;;;;;;;0.70;0.70;;;;;;;3.90;88.71;98216.81;2301051;69;20336;-79
2021/12/05 17:11:04;;;;;;;2.33;1.73;;;;;;;3.90;88.81;98219.38;2303681;69;20310;-79
2021/12/05 17:14:19;;;;;;;1.49;0.86;;;;;;;3.87;89.21;98219.38;2299957;69;20324;-79
2021/12/05 17:17:32;;;;;;;3.74;1.10;;;;;;;3.85;89.54;98227.06;2301221;67;21499;-79
2021/12/05 17:20:41;;;;;;;1.61;1.02;;;;;;;3.79;89.61;98239.91;2302961;69;20319;-79
2021/12/05 17:23:53;;;;;;;2.63;1.06;;;;;;;3.78;90.02;98224.50;2302868;69;20420;-79
2021/12/05 17:27:05;;;;;;;2.99;1.73;;;;;;;3.81;90.27;98234.78;2303713;69;20299;-80
2021/12/05 17:30:08;;;;;;;1.30;0.91;;;;;;;3.84;90.45;98243.34;2304053;69;20300;-80
2021/12/05 17:33:43;;;;;;;2.42;1.10;;;;;;;3.84;90.39;98242.47;2303382;66;25020;-79
2021/12/05 17:36:55;;;;;;;3.25;1.00;;;;;;;3.79;90.76;98237.34;2302918;69;20346;-79
2021/12/05 17:39:59;;;;;;;0.68;0.61;;;;;;;3.79;91.09;98247.59;2301432;69;20354;-79
2021/12/05 17:43:13;;;;;;;1.71;0.63;;;;;;;3.75;91.22;98245.00;2301471;69;20287;-78
2021/12/05 17:46:54;;;;;;;1.67;0.60;;;;;;;3.71;91.46;98249.25;2277289;70;20344;-79
2021/12/05 17:50:20;;;;;;;2.01;0.50;;;;;;;3.69;91.73;98247.53;2275212;70;20419;-79
2021/12/05 17:57:20;;;;;;;0.79;0.60;;;;;;;3.71;91.78;98253.53;2293955;69;20304;-78
2021/12/05 18:00:38;;;;;;;0.68;0.60;;;;;;;3.70;91.74;98259.53;2281390;69;995789;-78
2021/12/05 18:03:45;;;;;;;2.59;0.65;;;;;;;3.68;91.99;98262.09;2297745;69;20298;-78
2021/12/05 18:07:03;;;;;;;1.67;0.53;;;;;;;3.64;92.12;98257.81;2288172;69;20339;-78
2021/12/05 18:10:23;;;;;;;0.61;0.59;;;;;;;3.59;92.27;98256.91;2293863;69;20214;-78
2021/12/05 18:13:47;;;;;;;1.69;0.63;;;;;;;3.56;92.49;98262.03;2279214;69;21306;-77
2021/12/05 18:16:55;;;;;;;0.60;0.60;;;;;;;3.55;92.57;98268.88;2279963;69;20243;-78
2021/12/05 18:20:18;;;;;;;1.02;0.60;;;;;;;3.52;92.52;98270.56;2293641;69;20341;-78
2021/12/05 18:23:37;;;;;;;0.60;0.50;;;;;;;3.50;92.77;98273.13;2282168;69;20527;-78
2021/12/05 18:26:51;;;;;;;2.88;1.10;;;;;;;3.47;92.90;98272.25;2285882;69;20338;-78
2021/12/05 18:30:06;;;;;;;10.74;6.54;;;;;;;3.49;93.32;98281.66;2280856;69;20343;-78
2021/12/05 18:33:15;;;;;;;6.49;3.33;;;;;;;3.57;93.35;98289.41;2295091;69;20169;-78
2021/12/05 18:36:21;;;;;;;;;;;;;;;3.58;93.19;98286.84;2293990;69;20288;-78
2021/12/05 18:39:33;;;;;;;3.13;1.96;;;;;;;3.59;93.36;98293.72;2302427;69;20091;-78
2021/12/05 18:42:52;;;;;;;3.44;1.54;;;;;;;3.56;93.25;98295.38;2297782;69;20671;-78
2021/12/05 18:45:58;;;;;;;1.58;1.00;;;;;;;3.51;93.39;98297.06;2296715;69;20437;-78
2021/12/05 18:49:04;;;;;;;2.10;1.57;;;;;;;3.49;93.50;98296.22;2295756;69;20785;-78
2021/12/05 18:52:16;;;;;;;2.78;2.05;;;;;;;3.48;93.66;98305.63;2306115;69;20149;-78
2021/12/05 18:55:32;;;;;;;2.42;1.89;;;;;;;3.47;93.84;98308.19;2297653;69;20314;-78
2021/12/05 18:58:42;;;;;;;2.30;1.10;;;;;;;3.49;94.01;98319.31;2301804;69;20343;-78
2021/12/05 19:06:10;;;;;;;4.05;1.99;;;;;;;3.42;94.05;98327.81;2302549;69;20322;-78
2021/12/05 19:12:58;;;;;;;2.14;1.94;;;;;;;3.44;94.25;98336.38;2292207;69;20310;-78
2021/12/05 19:16:11;;;;;;;3.60;2.28;;;;;;;3.44;94.19;98336.38;2290819;69;20354;-78
2021/12/05 19:19:20;;;;;;;4.97;2.11;;;;;;;3.44;94.42;98344.94;2288276;69;20310;-78
2021/12/05 19:22:50;;;;;;;2.45;2.24;;;;;;;3.47;94.56;98344.97;2298061;69;20323;-78
2021/12/05 19:25:55;;;;;;;4.25;2.85;;;;;;;3.49;94.53;98350.09;2300581;69;20379;-77
2021/12/05 19:29:10;;;;;;;4.97;2.59;;;;;;;3.50;94.58;98359.50;2291743;69;20386;-78
2021/12/05 19:32:22;;;;;;;2.90;1.99;;;;;;;3.51;94.68;98361.22;2282718;69;20330;-78
2021/12/05 19:35:32;;;;;;;2.26;2.05;;;;;;;3.52;94.77;98365.50;2297538;69;20339;-78
2021/12/05 19:38:46;;;;;;;7.55;4.32;;;;;;;3.56;94.70;98375.78;2302529;69;20282;-78
2021/12/05 19:42:06;;;;;;;3.62;2.90;;;;;;;3.59;94.48;98377.53;2291853;69;20456;-78
2021/12/05 19:45:10;;;;;;;3.74;3.14;;;;;;;3.61;94.35;98370.72;2300213;69;21301;-77
2021/12/05 19:48:18;;;;;;;31.90;15.74;;;;;;;3.63;94.31;98367.31;2302136;66;26152;-78
2021/12/05 19:51:21;;;;;;;32.22;17.39;;;;;;;3.60;94.30;98369.88;2302551;69;20284;-77
2021/12/05 19:54:26;;;;;;;19.96;11.84;;;;;;;3.63;94.33;98376.72;2303615;69;20462;-77
2021/12/05 19:57:31;;;;;;;10.30;6.63;;;;;;;3.60;94.22;98371.56;2302885;69;20436;-77
2021/12/05 20:00:40;;;;;;;6.75;4.65;;;;;;;3.63;94.29;98381.84;2296087;67;20390;-77
2021/12/05 20:03:43;;;;;;;8.21;4.68;;;;;;;3.63;94.26;98387.84;2304321;69;20349;-77
2021/12/05 20:06:58;;;;;;;4.10;3.61;;;;;;;3.61;94.30;98389.53;2303387;69;20174;-78
2021/12/05 20:10:21;;;;;;;3.91;3.26;;;;;;;3.62;94.24;98393.84;2290499;69;20401;-78
2021/12/05 20:13:30;;;;;;;4.09;2.72;;;;;;;3.64;94.17;98399.81;2297133;69;20229;-78
2021/12/05 20:17:00;;;;;;;3.71;2.85;;;;;;;3.59;94.02;98395.50;2296377;69;20400;-78
2021/12/05 20:20:22;;;;;;;3.30;2.92;;;;;;;3.57;94.24;98394.63;2301167;69;20322;-78
2021/12/05 20:23:42;;;;;;;3.46;2.92;;;;;;;3.54;94.32;98408.28;2305058;69;20314;-77
2021/12/05 20:26:52;;;;;;;3.91;3.13;;;;;;;3.52;94.54;98407.44;2299877;69;20320;-78
2021/12/05 20:30:15;;;;;;;3.23;2.86;;;;;;;3.56;94.83;98424.56;2301409;69;20338;-76
2021/12/05 20:36:55;;;;;;;4.78;3.14;;;;;;;3.54;94.84;98412.56;2296367;69;20303;-79
2021/12/05 20:40:32;;;;;;;5.89;2.90;;;;;;;3.56;94.91;98427.13;2301668;69;20865;-79
2021/12/05 20:43:50;;;;;;;4.40;3.34;;;;;;;3.58;95.14;98427.13;2302254;69;20438;-77
2021/12/05 20:47:03;;;;;;;8.81;4.57;;;;;;;3.62;95.11;98434.91;2301444;69;20769;-79
2021/12/05 20:50:17;;;;;;;4.91;4.30;;;;;;;3.67;95.00;98436.63;2301144;69;20367;-78
2021/12/05 20:53:27;;;;;;;5.43;4.14;;;;;;;3.70;94.91;98427.25;2301621;69;20535;-78
2021/12/05 20:56:37;;;;;;;6.01;4.18;;;;;;;3.71;94.73;98421.25;2301755;69;20732;-78
2021/12/05 21:00:14;;;;;;;6.26;4.45;;;;;;;3.71;94.50;98434.09;2288762;69;20481;-81
2021/12/05 21:51:23;;;;;;;4.61;3.74;;;;;;;3.50;94.99;98509.22;2312505;69;21239;-82
